Time;durP1;ratioP1;P1;durP2;ratioP2;P2;SDS_P1;SDS_P2;PMS_P1;PMS_P2;Temp;Humidity;BMP_temperature;BMP_pressure;BME280_temperature;BME280_humidity;BME280_pressure;Samples;Min_cycle;Max_cycle;Signal;HPM_P1;HPM_P2
2023/05/04 00:02:03;;;;;;;0.38;0.32;;;8.10;73.40;;;;;;4954952;28;20050;-65
2023/05/04 00:04:29;;;;;;;0.00;0.00;;;8.10;73.80;;;;;;4970608;28;20050;-65
2023/05/04 00:06:55;;;;;;;0.00;0.00;;;8.10;73.70;;;;;;4969747;28;20050;-65
2023/05/04 00:09:20;;;;;;;0.00;0.00;;;8.10;73.60;;;;;;4964139;28;20047;-65
2023/05/04 00:11:46;;;;;;;0.00;0.00;;;8.10;73.50;;;;;;4970794;28;20496;-65
2023/05/04 00:14:12;;;;;;;0.00;0.00;;;8.10;73.60;;;;;;4972172;28;20047;-65
2023/05/04 00:16:37;;;;;;;0.00;0.00;;;8.10;74.20;;;;;;4962428;28;20468;-65
2023/05/04 00:19:03;;;;;;;4.03;0.90;;;8.00;73.80;;;;;;4969902;28;20039;-66
2023/05/04 00:21:28;;;;;;;0.00;0.00;;;8.00;73.90;;;;;;4968165;28;20129;-66
2023/05/04 00:23:54;;;;;;;0.00;0.00;;;7.90;73.70;;;;;;4970506;28;20064;-65
2023/05/04 00:26:20;;;;;;;0.00;0.00;;;7.90;73.90;;;;;;4956319;28;20093;-65
2023/05/04 00:28:45;;;;;;;0.00;0.00;;;7.90;74.30;;;;;;4959892;28;20058;-65
2023/05/04 00:31:11;;;;;;;0.00;0.00;;;7.80;74.20;;;;;;4970227;28;20134;-65
2023/05/04 00:33:36;;;;;;;0.00;0.00;;;7.80;74.20;;;;;;4977831;28;20050;-66
2023/05/04 00:36:03;;;;;;;0.10;0.10;;;7.80;74.10;;;;;;4969740;28;20035;-65
2023/05/04 00:38:28;;;;;;;0.00;0.00;;;7.70;74.20;;;;;;4952439;28;20039;-65
2023/05/04 00:40:54;;;;;;;0.00;0.00;;;7.70;74.20;;;;;;4970109;28;20097;-65
2023/05/04 00:43:20;;;;;;;0.00;0.00;;;7.70;74.00;;;;;;4965728;28;20039;-65
2023/05/04 00:45:46;;;;;;;0.00;0.00;;;7.60;74.20;;;;;;4956878;28;20456;-65
2023/05/04 00:48:11;;;;;;;0.00;0.00;;;7.70;74.40;;;;;;4962076;28;20570;-65
2023/05/04 00:50:37;;;;;;;0.10;0.10;;;7.60;74.50;;;;;;4956737;28;20046;-66
2023/05/04 00:53:08;;;;;;;1.17;0.57;;;7.60;74.30;;;;;;4984756;28;20093;-65
2023/05/04 00:55:37;;;;;;;0.00;0.00;;;7.60;74.70;;;;;;4974526;28;20035;-64
2023/05/04 00:58:02;;;;;;;0.10;0.10;;;7.60;75.00;;;;;;4970423;28;20043;-65
2023/05/04 01:00:28;;;;;;;0.08;0.08;;;7.60;74.90;;;;;;4955608;28;20562;-65
2023/05/04 01:02:53;;;;;;;0.00;0.00;;;7.50;75.30;;;;;;4965233;28;20042;-65
2023/05/04 01:05:19;;;;;;;0.00;0.00;;;7.60;75.10;;;;;;4974016;28;20407;-65
2023/05/04 01:07:59;;;;;;;0.00;0.00;;;7.60;75.00;;;;;;4974174;28;20039;-65
2023/05/04 01:10:33;;;;;;;0.00;0.00;;;7.60;75.00;;;;;;4964971;28;20110;-65
2023/05/04 01:13:14;;;;;;;0.00;0.00;;;7.60;75.40;;;;;;4967210;28;20114;-65
2023/05/04 01:15:40;;;;;;;0.10;0.10;;;7.60;75.20;;;;;;4966087;28;20039;-66
2023/05/04 01:18:06;;;;;;;0.00;0.00;;;7.60;75.40;;;;;;4973612;28;20594;-65
2023/05/04 01:20:31;;;;;;;0.00;0.00;;;7.60;75.10;;;;;;4956776;28;20055;-65
2023/05/04 01:22:58;;;;;;;0.00;0.00;;;7.70;75.20;;;;;;4973126;28;20070;-65
2023/05/04 01:25:46;;;;;;;0.00;0.00;;;7.70;75.40;;;;;;4959591;28;20047;-66
2023/05/04 01:28:19;;;;;;;0.00;0.00;;;7.70;75.20;;;;;;4972072;28;20054;-66
2023/05/04 01:30:48;;;;;;;0.05;0.05;;;7.60;75.40;;;;;;4968589;28;20054;-65
2023/05/04 01:33:15;;;;;;;0.00;0.00;;;7.70;75.20;;;;;;4972974;28;20057;-65
2023/05/04 01:35:41;;;;;;;0.00;0.00;;;7.60;75.10;;;;;;4966682;28;20042;-65
2023/05/04 01:38:06;;;;;;;0.00;0.00;;;7.70;75.20;;;;;;4972399;28;20043;-66
2023/05/04 01:40:32;;;;;;;0.00;0.00;;;7.60;75.00;;;;;;4973224;28;20503;-65
2023/05/04 01:42:58;;;;;;;0.00;0.00;;;7.60;74.90;;;;;;4954091;28;20047;-65
2023/05/04 01:45:23;;;;;;;0.00;0.00;;;7.60;74.90;;;;;;4962059;28;20047;-65
2023/05/04 01:47:49;;;;;;;0.10;0.10;;;7.60;75.10;;;;;;4974031;28;20042;-65
2023/05/04 01:50:14;;;;;;;0.00;0.00;;;7.60;75.30;;;;;;4972824;28;20530;-65
2023/05/04 01:52:40;;;;;;;0.00;0.00;;;7.50;75.40;;;;;;4963441;28;20050;-65
2023/05/04 01:55:06;;;;;;;0.10;0.10;;;7.50;75.90;;;;;;4957368;28;20047;-65
2023/05/04 01:57:31;;;;;;;0.00;0.00;;;7.40;75.60;;;;;;4973047;28;20035;-65
2023/05/04 01:59:57;;;;;;;0.00;0.00;;;7.40;75.50;;;;;;4970653;28;20039;-65
2023/05/04 02:02:23;;;;;;;0.00;0.00;;;7.40;75.70;;;;;;4982934;28;20480;-65
2023/05/04 02:04:49;;;;;;;0.00;0.00;;;7.40;75.50;;;;;;4971290;28;20038;-65
2023/05/04 02:07:15;;;;;;;0.10;0.10;;;7.40;75.50;;;;;;4965634;28;20536;-65
2023/05/04 02:09:41;;;;;;;0.00;0.00;;;7.40;75.70;;;;;;4952366;28;20086;-65
2023/05/04 02:12:07;;;;;;;0.00;0.00;;;7.40;75.90;;;;;;4967829;28;20100;-65
2023/05/04 02:14:32;;;;;;;0.00;0.00;;;7.40;76.10;;;;;;4949572;28;20432;-65
2023/05/04 02:16:58;;;;;;;0.00;0.00;;;7.40;76.00;;;;;;4970263;28;20042;-66
2023/05/04 02:19:23;;;;;;;0.00;0.00;;;7.40;75.70;;;;;;4966564;28;20091;-65
2023/05/04 02:21:51;;;;;;;0.00;0.00;;;7.50;75.50;;;;;;4936162;28;20043;-65
2023/05/04 02:24:16;;;;;;;0.00;0.00;;;7.50;75.80;;;;;;4963861;28;20057;-65
2023/05/04 02:26:42;;;;;;;0.00;0.00;;;7.50;76.10;;;;;;4968142;28;20404;-65
2023/05/04 02:29:07;;;;;;;0.00;0.00;;;7.50;76.00;;;;;;4971685;28;20129;-66
2023/05/04 02:31:33;;;;;;;0.00;0.00;;;7.50;76.20;;;;;;4953509;28;20106;-65
2023/05/04 02:34:00;;;;;;;0.00;0.00;;;7.50;76.30;;;;;;4953728;28;20042;-65
2023/05/04 02:36:26;;;;;;;0.00;0.00;;;7.50;76.20;;;;;;4970140;28;20495;-65
2023/05/04 02:38:51;;;;;;;0.20;0.20;;;7.50;76.10;;;;;;4975329;28;20054;-66
2023/05/04 02:41:17;;;;;;;0.00;0.00;;;7.60;76.00;;;;;;4972142;28;20484;-65
2023/05/04 02:43:42;;;;;;;0.00;0.00;;;7.60;75.90;;;;;;4960235;28;20047;-65
2023/05/04 02:46:08;;;;;;;0.00;0.00;;;7.60;75.90;;;;;;4958625;28;20435;-65
2023/05/04 02:48:33;;;;;;;0.00;0.00;;;7.50;76.00;;;;;;4975589;28;20038;-65
2023/05/04 02:50:59;;;;;;;0.00;0.00;;;7.50;75.80;;;;;;4966740;28;20130;-65
2023/05/04 02:53:25;;;;;;;0.00;0.00;;;7.50;76.00;;;;;;4951229;28;20096;-66
2023/05/04 02:55:50;;;;;;;0.00;0.00;;;7.50;76.00;;;;;;4955036;28;20514;-65
2023/05/04 02:58:16;;;;;;;0.00;0.00;;;7.40;76.40;;;;;;4972182;28;20492;-65
2023/05/04 03:00:41;;;;;;;0.00;0.00;;;7.40;76.20;;;;;;4971823;28;20101;-65
2023/05/04 03:03:07;;;;;;;0.00;0.00;;;7.30;76.20;;;;;;4971310;28;20415;-65
2023/05/04 03:05:32;;;;;;;0.00;0.00;;;7.30;76.20;;;;;;4971027;28;20133;-66
2023/05/04 03:07:58;;;;;;;0.00;0.00;;;7.30;76.20;;;;;;4970950;28;20053;-65
2023/05/04 03:10:23;;;;;;;0.00;0.00;;;7.20;76.50;;;;;;4970366;28;20145;-66
2023/05/04 03:12:49;;;;;;;0.00;0.00;;;7.30;76.20;;;;;;4961817;28;20050;-65
2023/05/04 03:15:15;;;;;;;0.00;0.00;;;7.30;76.10;;;;;;4965072;28;20050;-66
2023/05/04 03:17:42;;;;;;;0.00;0.00;;;7.30;76.10;;;;;;4966871;28;20050;-65
2023/05/04 03:20:08;;;;;;;0.00;0.00;;;7.20;76.10;;;;;;4956903;28;20139;-65
2023/05/04 03:22:34;;;;;;;0.00;0.00;;;7.20;76.20;;;;;;4964852;28;20059;-65
2023/05/04 03:25:00;;;;;;;0.00;0.00;;;7.30;76.30;;;;;;4961808;28;20039;-66
2023/05/04 03:27:25;;;;;;;0.00;0.00;;;7.30;76.30;;;;;;4971180;28;20523;-65
2023/05/04 03:29:51;;;;;;;0.00;0.00;;;7.30;76.50;;;;;;4953922;28;20113;-66
2023/05/04 03:32:16;;;;;;;0.00;0.00;;;7.30;77.00;;;;;;4966218;28;20101;-65
2023/05/04 03:34:44;;;;;;;0.80;0.80;;;7.30;77.30;;;;;;4969506;28;20058;-65
2023/05/04 03:37:10;;;;;;;0.00;0.00;;;7.30;77.30;;;;;;4952942;28;20043;-65
2023/05/04 03:39:36;;;;;;;0.00;0.00;;;7.30;77.00;;;;;;4970198;28;20112;-65
2023/05/04 03:42:02;;;;;;;0.00;0.00;;;7.30;76.70;;;;;;4961650;28;20452;-65
2023/05/04 03:44:28;;;;;;;0.00;0.00;;;7.30;76.70;;;;;;4934915;28;20058;-65
2023/05/04 03:46:53;;;;;;;0.00;0.00;;;7.20;76.80;;;;;;4955915;28;20038;-66
2023/05/04 03:49:19;;;;;;;0.10;0.10;;;7.30;76.80;;;;;;4953108;28;20519;-65
2023/05/04 03:51:44;;;;;;;0.00;0.00;;;7.30;77.30;;;;;;4968653;28;20043;-65
2023/05/04 03:54:11;;;;;;;0.00;0.00;;;7.20;77.50;;;;;;4951724;28;20047;-65
2023/05/04 03:56:37;;;;;;;0.00;0.00;;;7.30;77.50;;;;;;4952051;28;20065;-65
2023/05/04 03:59:03;;;;;;;0.00;0.00;;;7.30;77.90;;;;;;4973800;28;20487;-65
2023/05/04 04:01:29;;;;;;;0.00;0.00;;;7.20;77.50;;;;;;4963271;28;20043;-65
2023/05/04 04:03:54;;;;;;;0.00;0.00;;;7.20;77.10;;;;;;4952869;28;20043;-65
2023/05/04 04:06:21;;;;;;;0.00;0.00;;;7.20;77.20;;;;;;4951696;28;20126;-66
2023/05/04 04:08:46;;;;;;;0.00;0.00;;;7.20;77.40;;;;;;4952449;28;20090;-65
2023/05/04 04:11:12;;;;;;;0.00;0.00;;;7.20;77.50;;;;;;4958819;28;20046;-65
2023/05/04 04:13:38;;;;;;;0.00;0.00;;;7.10;77.40;;;;;;4966796;28;20043;-65
2023/05/04 04:16:03;;;;;;;0.43;0.43;;;7.10;77.70;;;;;;4969782;28;20043;-65
2023/05/04 04:18:29;;;;;;;0.10;0.10;;;7.10;77.60;;;;;;4958461;28;20054;-65
2023/05/04 04:20:55;;;;;;;0.00;0.00;;;7.10;77.60;;;;;;4982290;28;20125;-65
2023/05/04 04:23:20;;;;;;;0.00;0.00;;;7.10;77.70;;;;;;4961371;28;20042;-65
2023/05/04 04:25:46;;;;;;;0.00;0.00;;;7.10;77.60;;;;;;4963813;28;20043;-66
2023/05/04 04:28:15;;;;;;;0.10;0.10;;;7.10;77.80;;;;;;4954352;28;20079;-65
2023/05/04 04:30:41;;;;;;;0.30;0.30;;;7.10;78.10;;;;;;4966512;28;20050;-65
2023/05/04 04:33:06;;;;;;;0.00;0.00;;;7.10;78.00;;;;;;4969918;28;20046;-65
2023/05/04 04:35:32;;;;;;;0.00;0.00;;;7.10;78.30;;;;;;4969807;28;20035;-65
2023/05/04 04:37:58;;;;;;;0.00;0.00;;;7.10;78.00;;;;;;4969623;28;20035;-65
2023/05/04 04:40:24;;;;;;;0.00;0.00;;;7.20;77.80;;;;;;4954504;28;20051;-66
2023/05/04 04:42:51;;;;;;;0.00;0.00;;;7.20;77.70;;;;;;4951026;28;20489;-65
2023/05/04 04:45:17;;;;;;;0.00;0.00;;;7.20;77.90;;;;;;4952199;28;20134;-65
2023/05/04 04:47:43;;;;;;;0.00;0.00;;;7.20;78.20;;;;;;4958001;28;20067;-65
2023/05/04 04:50:09;;;;;;;0.13;0.13;;;7.20;78.30;;;;;;4969669;28;20074;-65
2023/05/04 04:52:35;;;;;;;0.10;0.10;;;7.20;78.20;;;;;;4970638;28;20073;-65
2023/05/04 04:55:01;;;;;;;0.00;0.00;;;7.30;78.50;;;;;;4951386;28;20058;-65
2023/05/04 04:57:26;;;;;;;0.00;0.00;;;7.30;78.40;;;;;;4954964;28;20050;-65
2023/05/04 04:59:52;;;;;;;0.20;0.20;;;7.30;78.60;;;;;;4958003;28;20043;-66
2023/05/04 05:02:19;;;;;;;0.35;0.28;;;7.30;78.50;;;;;;4963216;28;20071;-65
2023/05/04 05:04:45;;;;;;;0.00;0.00;;;7.30;78.60;;;;;;4965151;28;20046;-66
2023/05/04 05:07:11;;;;;;;0.00;0.00;;;7.30;78.60;;;;;;4968699;28;20097;-65
2023/05/04 05:09:37;;;;;;;0.00;0.00;;;7.30;78.30;;;;;;4958721;28;20035;-64
2023/05/04 05:12:06;;;;;;;0.00;0.00;;;7.40;78.30;;;;;;4961354;28;20061;-64
2023/05/04 05:14:31;;;;;;;0.00;0.00;;;7.40;78.40;;;;;;4963773;28;20146;-64
2023/05/04 05:16:58;;;;;;;0.00;0.00;;;7.30;78.90;;;;;;4976872;28;20117;-65
2023/05/04 05:19:24;;;;;;;0.00;0.00;;;7.40;78.70;;;;;;4962930;28;20477;-65
2023/05/04 05:21:49;;;;;;;0.10;0.10;;;7.40;79.30;;;;;;4944012;28;20080;-65
2023/05/04 05:24:16;;;;;;;0.00;0.00;;;7.40;78.90;;;;;;4951528;28;20086;-65
2023/05/04 05:26:41;;;;;;;0.00;0.00;;;7.50;78.80;;;;;;4949902;28;20075;-65
2023/05/04 05:29:07;;;;;;;0.00;0.00;;;7.50;78.60;;;;;;4956735;28;20055;-65
2023/05/04 05:31:33;;;;;;;0.00;0.00;;;7.50;78.90;;;;;;4958602;28;20054;-65
2023/05/04 05:33:59;;;;;;;0.00;0.00;;;7.60;79.10;;;;;;4962278;28;20124;-65
2023/05/04 05:36:24;;;;;;;0.00;0.00;;;7.60;78.70;;;;;;4984997;28;20047;-66
2023/05/04 05:38:51;;;;;;;0.00;0.00;;;7.70;78.50;;;;;;4967121;28;20039;-66
2023/05/04 05:41:16;;;;;;;0.00;0.00;;;7.70;78.80;;;;;;4968682;28;20057;-65
2023/05/04 05:43:42;;;;;;;0.00;0.00;;;7.90;80.30;;;;;;4966157;28;20050;-65
2023/05/04 05:46:07;;;;;;;0.00;0.00;;;8.00;79.20;;;;;;4964742;28;20042;-64
2023/05/04 05:48:33;;;;;;;0.00;0.00;;;8.10;78.60;;;;;;4970619;28;20097;-66
2023/05/04 05:50:59;;;;;;;0.00;0.00;;;8.30;81.70;;;;;;4962516;28;20052;-64
2023/05/04 05:53:24;;;;;;;0.00;0.00;;;8.40;79.30;;;;;;4974956;28;20039;-64
2023/05/04 05:55:50;;;;;;;0.00;0.00;;;8.40;78.70;;;;;;4977373;28;20042;-65
2023/05/04 05:58:15;;;;;;;0.00;0.00;;;8.80;83.20;;;;;;4961730;28;20050;-65
2023/05/04 06:00:41;;;;;;;0.00;0.00;;;8.90;79.90;;;;;;4971860;28;20047;-64
2023/05/04 06:03:06;;;;;;;0.13;0.13;;;8.80;78.10;;;;;;4951229;28;20146;-65
2023/05/04 06:05:35;;;;;;;0.10;0.10;;;8.70;77.30;;;;;;4962070;28;20311;-64
2023/05/04 06:08:01;;;;;;;0.00;0.00;;;8.70;76.90;;;;;;4969105;28;20089;-64
2023/05/04 06:10:26;;;;;;;0.00;0.00;;;8.60;76.90;;;;;;4953386;28;20050;-65
2023/05/04 06:12:52;;;;;;;0.00;0.00;;;8.60;77.00;;;;;;4969157;28;20038;-64
2023/05/04 06:15:18;;;;;;;0.00;0.00;;;8.50;77.50;;;;;;4970640;28;20507;-65
2023/05/04 06:17:43;;;;;;;0.00;0.00;;;8.50;77.50;;;;;;4971541;28;20500;-64
2023/05/04 06:20:09;;;;;;;0.00;0.00;;;8.60;77.40;;;;;;4971710;28;20133;-64
2023/05/04 06:22:35;;;;;;;0.00;0.00;;;8.60;77.60;;;;;;4972451;28;20054;-64
2023/05/04 06:25:00;;;;;;;0.00;0.00;;;8.60;77.40;;;;;;4972191;28;20558;-64
2023/05/04 06:27:27;;;;;;;0.00;0.00;;;8.70;77.30;;;;;;4972752;28;20050;-65
2023/05/04 06:29:53;;;;;;;0.00;0.00;;;8.70;77.20;;;;;;4972824;28;20109;-64
2023/05/04 06:32:18;;;;;;;0.00;0.00;;;8.80;77.60;;;;;;4971166;28;20107;-64
2023/05/04 06:34:44;;;;;;;0.00;0.00;;;8.80;77.60;;;;;;4971215;28;20105;-64
2023/05/04 06:37:10;;;;;;;0.00;0.00;;;8.90;77.50;;;;;;4972619;28;20047;-64
2023/05/04 06:39:36;;;;;;;0.00;0.00;;;8.90;77.50;;;;;;4972393;28;20051;-64
2023/05/04 06:42:02;;;;;;;0.00;0.00;;;9.00;77.40;;;;;;4969596;28;20042;-64
2023/05/04 06:44:27;;;;;;;0.00;0.00;;;9.10;77.10;;;;;;4970951;28;20058;-64
2023/05/04 06:46:53;;;;;;;0.00;0.00;;;9.10;77.20;;;;;;4972365;28;20043;-64
2023/05/04 06:49:18;;;;;;;0.00;0.00;;;9.20;76.90;;;;;;4957739;28;20035;-64
2023/05/04 06:51:44;;;;;;;0.00;0.00;;;9.20;76.60;;;;;;4952650;29;20058;-64
2023/05/04 06:54:10;;;;;;;0.00;0.00;;;9.30;76.70;;;;;;4952681;28;20061;-64
2023/05/04 06:56:38;;;;;;;1.45;1.00;;;9.30;76.50;;;;;;4953062;28;20058;-64
2023/05/04 06:59:04;;;;;;;0.00;0.00;;;9.40;76.40;;;;;;4952870;29;20051;-64
2023/05/04 07:01:30;;;;;;;0.00;0.00;;;9.50;76.40;;;;;;4966572;28;20047;-64
2023/05/04 07:03:57;;;;;;;0.00;0.00;;;9.50;76.30;;;;;;4972116;28;20042;-64
2023/05/04 07:06:25;;;;;;;0.00;0.00;;;9.50;76.00;;;;;;4970905;28;20047;-64
2023/05/04 07:08:50;;;;;;;0.00;0.00;;;9.60;76.20;;;;;;4970904;28;20051;-65
2023/05/04 07:11:16;;;;;;;0.00;0.00;;;9.60;76.10;;;;;;4970153;28;20042;-64
2023/05/04 07:13:42;;;;;;;0.00;0.00;;;9.60;76.10;;;;;;4959647;28;20483;-66
2023/05/04 07:16:08;;;;;;;0.00;0.00;;;9.70;76.00;;;;;;4972052;28;20054;-65
2023/05/04 07:18:33;;;;;;;0.10;0.10;;;9.80;76.00;;;;;;4971045;28;20134;-65
2023/05/04 07:20:59;;;;;;;0.10;0.10;;;9.90;75.80;;;;;;4971918;28;20097;-65
2023/05/04 07:23:24;;;;;;;0.00;0.00;;;10.00;75.70;;;;;;4971465;28;20520;-65
2023/05/04 07:25:50;;;;;;;0.00;0.00;;;10.00;75.50;;;;;;4972049;28;20053;-65
2023/05/04 07:28:16;;;;;;;0.30;0.30;;;10.10;75.50;;;;;;4971387;28;20416;-65
2023/05/04 07:30:41;;;;;;;0.00;0.00;;;10.20;75.40;;;;;;4971829;28;20047;-65
2023/05/04 07:33:07;;;;;;;0.00;0.00;;;10.20;75.30;;;;;;4971395;28;20065;-65
2023/05/04 07:35:32;;;;;;;0.00;0.00;;;10.30;75.10;;;;;;4971462;28;20043;-65
2023/05/04 07:37:58;;;;;;;0.08;0.08;;;10.40;75.30;;;;;;4971615;28;20042;-66
2023/05/04 07:40:24;;;;;;;0.10;0.10;;;10.50;75.10;;;;;;4970203;28;20816;-65
2023/05/04 07:42:50;;;;;;;0.00;0.00;;;10.50;75.30;;;;;;4971583;28;20043;-65
2023/05/04 07:45:16;;;;;;;0.10;0.10;;;10.60;75.40;;;;;;4971398;28;20412;-66
2023/05/04 07:47:41;;;;;;;0.00;0.00;;;10.60;75.20;;;;;;4969821;28;20090;-66
2023/05/04 07:50:07;;;;;;;0.00;0.00;;;10.70;75.10;;;;;;4969897;28;20625;-64
2023/05/04 07:52:33;;;;;;;0.00;0.00;;;10.80;75.20;;;;;;4970999;28;20054;-66
2023/05/04 07:54:59;;;;;;;0.00;0.00;;;10.90;75.10;;;;;;4970267;28;20082;-65
2023/05/04 07:57:24;;;;;;;0.00;0.00;;;11.00;74.90;;;;;;4970734;28;20069;-65
2023/05/04 07:59:53;;;;;;;0.05;0.05;;;11.10;74.90;;;;;;4971438;28;20389;-66
2023/05/04 08:02:19;;;;;;;0.00;0.00;;;11.10;74.60;;;;;;4971365;28;20121;-66
2023/05/04 08:04:44;;;;;;;0.00;0.00;;;11.20;74.20;;;;;;4971037;28;20473;-65
2023/05/04 08:07:10;;;;;;;0.00;0.00;;;11.20;74.20;;;;;;4971102;28;20419;-66
2023/05/04 08:09:35;;;;;;;0.88;0.82;;;11.30;74.20;;;;;;4971125;28;20105;-65
2023/05/04 08:12:03;;;;;;;0.00;0.00;;;11.40;74.00;;;;;;4971164;28;20043;-65
2023/05/04 08:14:28;;;;;;;0.00;0.00;;;11.50;73.80;;;;;;4970509;28;20046;-65
2023/05/04 08:16:54;;;;;;;0.00;0.00;;;11.60;73.60;;;;;;4969630;28;20106;-66
2023/05/04 08:19:21;;;;;;;0.17;0.17;;;11.60;73.40;;;;;;4971114;28;20117;-66
2023/05/04 08:21:47;;;;;;;0.00;0.00;;;11.70;73.30;;;;;;4971020;28;20407;-65
2023/05/04 08:24:13;;;;;;;0.00;0.00;;;11.70;73.10;;;;;;4970477;28;20062;-66
2023/05/04 08:26:39;;;;;;;0.00;0.00;;;11.80;73.00;;;;;;4970927;28;20043;-66
2023/05/04 08:29:06;;;;;;;0.00;0.00;;;11.80;72.90;;;;;;4970636;28;20070;-65
2023/05/04 08:31:32;;;;;;;0.50;0.50;;;11.90;72.90;;;;;;4969615;28;20050;-66
2023/05/04 08:33:58;;;;;;;0.00;0.00;;;11.90;72.70;;;;;;4970792;28;20054;-65
2023/05/04 08:36:25;;;;;;;0.00;0.00;;;12.00;72.20;;;;;;4970426;28;20047;-66
2023/05/04 08:38:52;;;;;;;0.00;0.00;;;12.10;72.30;;;;;;4971092;28;20050;-65
2023/05/04 08:41:18;;;;;;;0.00;0.00;;;12.10;72.10;;;;;;4970602;28;20125;-66
2023/05/04 08:43:45;;;;;;;0.00;0.00;;;12.10;72.10;;;;;;4968961;28;20129;-65
2023/05/04 08:46:12;;;;;;;1.08;0.98;;;12.20;71.80;;;;;;4970510;28;20405;-65
2023/05/04 08:48:38;;;;;;;0.38;0.30;;;12.40;72.20;;;;;;4971019;28;20074;-65
2023/05/04 08:51:05;;;;;;;0.00;0.00;;;12.50;72.20;;;;;;4970692;28;20050;-65
2023/05/04 08:53:34;;;;;;;0.10;0.10;;;12.60;72.00;;;;;;4970622;28;20050;-65
2023/05/04 08:56:02;;;;;;;0.00;0.00;;;12.60;71.30;;;;;;4970568;28;20039;-65
2023/05/04 08:58:29;;;;;;;0.00;0.00;;;12.80;71.50;;;;;;4953486;28;20047;-65
2023/05/04 09:00:57;;;;;;;0.47;0.47;;;12.80;71.20;;;;;;4970716;28;20046;-66
2023/05/04 09:03:23;;;;;;;3.33;0.85;;;12.90;70.80;;;;;;4970345;28;20471;-65
2023/05/04 09:05:51;;;;;;;0.00;0.00;;;12.90;69.20;;;;;;4972236;28;20039;-65
2023/05/04 09:08:17;;;;;;;0.00;0.00;;;12.90;69.70;;;;;;4973922;28;20054;-66
2023/05/04 09:10:42;;;;;;;0.55;0.55;;;13.00;69.30;;;;;;4974425;28;20038;-65
2023/05/04 09:13:08;;;;;;;0.00;0.00;;;13.10;69.70;;;;;;4973971;28;20138;-66
2023/05/04 09:15:33;;;;;;;0.10;0.10;;;13.10;70.00;;;;;;4973168;28;20133;-66
2023/05/04 09:18:04;;;;;;;0.00;0.00;;;13.20;69.60;;;;;;4972543;28;20192;-66
2023/05/04 09:20:30;;;;;;;0.00;0.00;;;13.20;69.80;;;;;;4973853;28;20047;-65
2023/05/04 09:23:05;;;;;;;0.00;0.00;;;13.30;69.60;;;;;;4973980;28;20082;-65
2023/05/04 09:25:50;;;;;;;0.00;0.00;;;13.40;68.90;;;;;;4974184;28;20404;-66
2023/05/04 09:28:17;;;;;;;0.00;0.00;;;13.50;69.30;;;;;;4973905;28;20055;-65
2023/05/04 09:30:43;;;;;;;0.03;0.03;;;13.50;69.50;;;;;;4972696;28;20507;-66
2023/05/04 09:33:12;;;;;;;0.05;0.05;;;13.60;69.50;;;;;;4973499;28;20485;-65
2023/05/04 09:35:39;;;;;;;0.00;0.00;;;13.70;69.10;;;;;;4973805;28;20035;-65
2023/05/04 09:38:06;;;;;;;0.00;0.00;;;13.80;68.40;;;;;;4973710;28;20039;-66
2023/05/04 09:40:36;;;;;;;0.00;0.00;;;13.90;69.10;;;;;;4973521;28;20518;-65
2023/05/04 09:43:03;;;;;;;0.00;0.00;;;14.00;68.90;;;;;;4972250;28;20047;-65
2023/05/04 09:45:39;;;;;;;0.20;0.20;;;14.10;68.60;;;;;;4973621;28;20078;-65
2023/05/04 09:48:16;;;;;;;0.00;0.00;;;14.10;68.20;;;;;;4972491;28;20165;-65
2023/05/04 09:50:47;;;;;;;0.00;0.00;;;14.20;67.60;;;;;;4974079;28;20403;-65
2023/05/04 09:53:14;;;;;;;0.00;0.00;;;14.30;67.50;;;;;;4973161;28;20507;-65
2023/05/04 09:55:43;;;;;;;0.00;0.00;;;14.30;66.70;;;;;;4972391;28;20062;-65
2023/05/04 09:58:10;;;;;;;0.93;0.88;;;14.40;67.10;;;;;;4973339;28;20047;-65
2023/05/04 10:00:35;;;;;;;0.00;0.00;;;14.50;67.10;;;;;;4973411;28;20046;-65
2023/05/04 10:03:04;;;;;;;0.00;0.00;;;14.50;66.50;;;;;;4973502;28;20054;-65
2023/05/04 10:05:29;;;;;;;0.00;0.00;;;14.60;67.10;;;;;;4972922;28;20047;-65
2023/05/04 10:07:58;;;;;;;0.00;0.00;;;14.70;66.70;;;;;;4973845;28;20049;-65
2023/05/04 10:10:24;;;;;;;0.00;0.00;;;14.80;66.20;;;;;;4973557;28;20052;-64
2023/05/04 10:12:50;;;;;;;0.00;0.00;;;14.80;65.40;;;;;;4971972;28;20058;-64
2023/05/04 10:15:18;;;;;;;0.03;0.03;;;14.90;65.30;;;;;;4972941;28;20055;-64
2023/05/04 10:18:21;;;;;;;0.00;0.00;;;14.90;65.60;;;;;;4972743;28;20411;-64
2023/05/04 10:21:15;;;;;;;0.20;0.20;;;15.00;65.10;;;;;;4973026;28;20039;-64
2023/05/04 10:24:06;;;;;;;0.00;0.00;;;15.00;65.60;;;;;;4971891;28;20385;-64
2023/05/04 10:26:49;;;;;;;0.00;0.00;;;15.10;65.90;;;;;;4972939;28;20089;-64
2023/05/04 10:29:23;;;;;;;0.00;0.00;;;15.20;65.60;;;;;;4972820;28;20054;-64
2023/05/04 10:31:48;;;;;;;0.10;0.10;;;15.20;64.70;;;;;;4972557;28;20055;-64
2023/05/04 10:34:31;;;;;;;0.00;0.00;;;15.30;64.70;;;;;;4972478;28;20097;-64
2023/05/04 10:36:59;;;;;;;0.00;0.00;;;15.30;64.70;;;;;;4972704;28;20113;-64
2023/05/04 10:39:33;;;;;;;0.00;0.00;;;15.50;64.70;;;;;;4972624;28;20042;-64
2023/05/04 10:42:04;;;;;;;0.00;0.00;;;15.50;64.30;;;;;;4972788;28;20055;-64
2023/05/04 10:44:36;;;;;;;0.30;0.30;;;15.60;65.10;;;;;;4971481;28;20485;-64
2023/05/04 10:47:05;;;;;;;0.25;0.25;;;15.70;65.20;;;;;;4972584;28;20051;-64
2023/05/04 10:49:32;;;;;;;0.00;0.00;;;15.80;62.30;;;;;;4972522;28;20077;-64
2023/05/04 10:52:05;;;;;;;0.10;0.10;;;15.90;63.90;;;;;;4971249;28;20059;-64
2023/05/04 10:54:30;;;;;;;0.10;0.10;;;16.10;64.40;;;;;;4955236;28;20476;-64
2023/05/04 10:57:09;;;;;;;0.08;0.08;;;16.20;63.90;;;;;;4972176;28;20081;-64
2023/05/04 10:59:34;;;;;;;0.00;0.00;;;16.30;64.10;;;;;;4972400;28;20051;-64
2023/05/04 11:02:01;;;;;;;0.00;0.00;;;16.40;62.00;;;;;;4972337;28;20043;-64
2023/05/04 11:04:27;;;;;;;0.00;0.00;;;16.40;61.50;;;;;;4972611;28;20056;-64
2023/05/04 11:07:07;;;;;;;0.00;0.00;;;16.50;61.30;;;;;;4972247;28;20038;-65
2023/05/04 11:09:37;;;;;;;0.00;0.00;;;16.50;62.20;;;;;;4972374;28;20047;-64
2023/05/04 11:12:03;;;;;;;0.00;0.00;;;16.60;63.10;;;;;;4970821;28;20047;-64
2023/05/04 11:14:29;;;;;;;0.00;0.00;;;16.60;61.80;;;;;;4971844;28;20054;-64
2023/05/04 11:17:11;;;;;;;0.35;0.35;;;16.60;61.60;;;;;;4972950;28;20034;-64
2023/05/04 11:19:50;;;;;;;6.60;0.70;;;16.80;62.60;;;;;;4971599;28;20058;-64
2023/05/04 11:22:16;;;;;;;0.00;0.00;;;16.90;59.70;;;;;;4971944;28;20051;-64
2023/05/04 11:24:44;;;;;;;0.00;0.00;;;16.90;61.00;;;;;;4971872;28;20050;-64
2023/05/04 11:27:22;;;;;;;0.20;0.20;;;17.10;61.70;;;;;;4971316;28;20046;-63
2023/05/04 11:29:58;;;;;;;0.00;0.00;;;17.10;60.90;;;;;;4971237;28;20058;-64
2023/05/04 11:32:38;;;;;;;0.00;0.00;;;17.20;61.10;;;;;;4971746;28;20055;-64
2023/05/04 11:35:06;;;;;;;0.00;0.00;;;17.30;60.10;;;;;;4971620;28;20082;-63
2023/05/04 11:37:42;;;;;;;0.00;0.00;;;17.40;59.20;;;;;;4971742;28;20122;-63
2023/05/04 11:40:14;;;;;;;0.08;0.08;;;17.50;59.90;;;;;;4971854;28;20038;-63
2023/05/04 11:42:41;;;;;;;0.00;0.00;;;17.40;57.80;;;;;;4971778;28;20043;-64
2023/05/04 11:45:16;;;;;;;0.00;0.00;;;17.60;60.60;;;;;;4970168;28;20057;-64
2023/05/04 11:47:43;;;;;;;0.10;0.10;;;17.60;59.60;;;;;;4971632;28;20049;-64
2023/05/04 11:50:10;;;;;;;0.00;0.00;;;17.60;59.00;;;;;;4970903;28;20089;-64
2023/05/04 11:52:39;;;;;;;0.00;0.00;;;17.60;58.80;;;;;;4954254;28;20054;-64
2023/05/04 11:55:07;;;;;;;0.00;0.00;;;17.60;60.50;;;;;;4971271;28;20054;-64
2023/05/04 11:57:35;;;;;;;0.32;0.32;;;17.70;59.30;;;;;;4971055;28;20500;-64
2023/05/04 12:00:03;;;;;;;0.00;0.00;;;17.80;58.50;;;;;;4971486;28;20043;-64
2023/05/04 12:02:28;;;;;;;6.03;0.75;;;17.90;58.30;;;;;;4971008;28;20484;-64
2023/05/04 12:04:54;;;;;;;0.00;0.00;;;18.00;59.50;;;;;;4971227;28;20048;-64
2023/05/04 12:07:20;;;;;;;0.00;0.00;;;18.10;59.30;;;;;;4969993;28;20046;-64
2023/05/04 12:09:47;;;;;;;0.00;0.00;;;18.30;59.70;;;;;;4970816;28;20086;-64
2023/05/04 12:12:17;;;;;;;0.00;0.00;;;18.30;59.50;;;;;;4971144;28;20047;-64
2023/05/04 12:14:50;;;;;;;0.00;0.00;;;18.50;57.90;;;;;;4970933;28;20054;-64
2023/05/04 12:17:18;;;;;;;0.00;0.00;;;18.50;55.80;;;;;;4969614;28;20054;-64
2023/05/04 12:19:49;;;;;;;0.08;0.08;;;18.60;56.10;;;;;;4970980;28;20424;-63
2023/05/04 12:22:15;;;;;;;0.00;0.00;;;18.70;57.60;;;;;;4970527;28;20055;-64
2023/05/04 12:24:41;;;;;;;0.00;0.00;;;18.90;56.00;;;;;;4970974;28;20411;-64
2023/05/04 12:27:13;;;;;;;0.00;0.00;;;19.00;55.60;;;;;;4970504;28;20048;-64
2023/05/04 12:29:39;;;;;;;0.00;0.00;;;19.10;56.40;;;;;;4970610;28;20482;-64
2023/05/04 12:32:05;;;;;;;0.30;0.30;;;19.30;56.40;;;;;;4970662;28;20134;-64
2023/05/04 12:34:31;;;;;;;0.10;0.10;;;19.40;57.00;;;;;;4970259;28;20053;-64
2023/05/04 12:36:57;;;;;;;0.00;0.00;;;19.40;54.70;;;;;;4970830;28;20045;-65
2023/05/04 12:39:22;;;;;;;0.00;0.00;;;19.50;54.60;;;;;;4970775;28;20042;-64
2023/05/04 12:41:48;;;;;;;0.00;0.00;;;19.50;53.90;;;;;;4970603;28;20512;-64
2023/05/04 12:44:15;;;;;;;0.00;0.00;;;19.30;52.60;;;;;;4970974;28;20511;-64
2023/05/04 12:46:42;;;;;;;0.00;0.00;;;19.30;53.50;;;;;;4970742;28;20050;-64
2023/05/04 12:49:09;;;;;;;0.00;0.00;;;19.30;55.00;;;;;;4970571;28;20053;-64
2023/05/04 12:51:35;;;;;;;0.00;0.00;;;19.40;54.50;;;;;;4969638;28;20129;-64
2023/05/04 12:54:01;;;;;;;0.00;0.00;;;19.50;55.20;;;;;;4970275;28;20461;-64